Time;durP1;ratioP1;P1;durP2;ratioP2;P2;SDS_P1;SDS_P2;PMS_P1;PMS_P2;Temp;Humidity;BMP_temperature;BMP_pressure;BME280_temperature;BME280_humidity;BME280_pressure;Samples;Min_cycle;Max_cycle;Signal;HPM_P1;HPM_P2
2023/12/16 00:01:36;;;;;;;4.93;3.90;;;;;;;0.96;82.31;101589.50;5117474;28;20505;-73
2023/12/16 00:04:11;;;;;;;1.73;1.63;;;;;;;0.99;82.83;101588.84;5117998;28;20031;-74
2023/12/16 00:06:40;;;;;;;2.08;1.88;;;;;;;0.98;82.47;101580.44;5118194;28;20043;-74
2023/12/16 00:09:09;;;;;;;4.10;3.70;;;;;;;1.01;83.09;101578.13;5118192;28;20035;-73
2023/12/16 00:11:37;;;;;;;0.70;0.70;;;;;;;1.01;83.29;101588.19;5118049;28;20047;-74
2023/12/16 00:14:07;;;;;;;1.55;1.45;;;;;;;1.03;83.00;101589.16;5116716;28;20043;-77
2023/12/16 00:16:36;;;;;;;1.58;1.48;;;;;;;1.08;83.28;101600.38;5116764;28;20036;-77
2023/12/16 00:19:05;;;;;;;1.73;1.63;;;;;;;1.14;82.75;101607.47;5117795;27;20048;-77
2023/12/16 00:21:37;;;;;;;2.92;1.77;;;;;;;1.15;83.04;101601.69;5100046;28;20050;-77
2023/12/16 00:24:06;;;;;;;2.65;2.45;;;;;;;1.11;83.10;101590.53;5116515;28;20040;-77
2023/12/16 00:26:35;;;;;;;1.90;1.75;;;;;;;1.18;83.27;101587.66;5115380;28;20524;-74
2023/12/16 00:29:04;;;;;;;1.43;1.33;;;;;;;1.27;83.61;101589.94;5099499;28;20424;-73
2023/12/16 00:31:33;;;;;;;1.17;0.70;;;;;;;1.19;82.87;101579.38;5117448;28;20086;-74
2023/12/16 00:34:02;;;;;;;1.77;1.67;;;;;;;1.28;83.08;101605.13;5117545;28;20044;-74
2023/12/16 00:36:31;;;;;;;2.60;2.40;;;;;;;1.31;83.51;101602.81;5117907;28;20071;-77
2023/12/16 00:39:02;;;;;;;2.97;2.78;;;;;;;1.35;83.51;101594.69;5117236;28;20050;-77
2023/12/16 00:41:32;;;;;;;1.00;1.00;;;;;;;1.36;83.17;101593.06;5117549;28;20503;-77
2023/12/16 00:44:01;;;;;;;4.32;1.80;;;;;;;1.40;82.85;101589.09;5099183;28;20035;-77
2023/12/16 00:46:31;;;;;;;2.38;1.10;;;;;;;1.43;82.80;101600.25;5098964;28;20040;-74
2023/12/16 00:49:00;;;;;;;9.98;3.03;;;;;;;1.43;83.54;101599.38;5116894;28;20048;-74
2023/12/16 00:51:30;;;;;;;12.00;2.92;;;;;;;1.42;82.78;101602.66;5117580;28;20032;-74
2023/12/16 00:53:58;;;;;;;4.35;1.40;;;;;;;1.37;82.90;101599.81;5117186;28;20046;-74
2023/12/16 00:56:28;;;;;;;6.60;3.60;;;;;;;1.39;83.88;101595.78;5115854;28;20039;-78
2023/12/16 00:58:58;;;;;;;2.30;2.17;;;;;;;1.37;83.27;101599.81;5117133;28;20276;-77
2023/12/16 01:01:27;;;;;;;3.03;2.08;;;;;;;1.35;83.99;101597.22;5082053;28;20405;-78
2023/12/16 01:03:56;;;;;;;2.78;2.58;;;;;;;1.28;83.23;101601.72;5098624;28;20056;-78
2023/12/16 01:06:25;;;;;;;2.45;2.25;;;;;;;1.16;83.16;101596.75;5115870;28;20435;-74
2023/12/16 01:08:54;;;;;;;1.93;1.83;;;;;;;1.14;84.06;101593.28;5116920;28;20046;-73
2023/12/16 01:11:23;;;;;;;3.17;2.58;;;;;;;1.23;83.87;101605.59;5097851;28;20389;-74
2023/12/16 01:13:54;;;;;;;0.68;0.68;;;;;;;1.25;84.36;101604.03;5116836;28;20398;-74
2023/12/16 01:16:23;;;;;;;0.95;0.95;;;;;;;1.26;84.00;101606.66;5116456;28;20047;-74
2023/12/16 01:18:52;;;;;;;1.80;1.67;;;;;;;1.31;84.67;101605.34;5116429;28;20039;-74
2023/12/16 01:21:21;;;;;;;;;;;;;;;1.32;84.32;101612.09;5116106;28;20549;-74
2023/12/16 01:23:50;;;;;;;1.73;1.63;;;;;;;1.31;83.81;101630.50;5116645;28;20391;-74
2023/12/16 01:26:19;;;;;;;2.60;2.40;;;;;;;1.28;83.80;101627.75;5114940;28;20046;-74
2023/12/16 01:28:47;;;;;;;2.40;2.20;;;;;;;1.23;84.47;101630.72;5116536;28;20043;-73
2023/12/16 01:31:18;;;;;;;5.40;2.73;;;;;;;1.20;84.18;101638.94;5115156;28;20622;-74
2023/12/16 01:33:47;;;;;;;1.42;1.33;;;;;;;1.16;84.47;101633.59;5116537;28;20051;-73
2023/12/16 01:36:16;;;;;;;1.30;1.20;;;;;;;1.13;84.34;101639.28;5116093;28;20043;-77
2023/12/16 01:38:45;;;;;;;2.90;1.67;;;;;;;1.13;84.08;101641.81;5115473;28;20074;-77
2023/12/16 01:41:14;;;;;;;2.33;2.23;;;;;;;1.13;84.61;101640.91;5114912;28;20051;-77
2023/12/16 01:43:43;;;;;;;2.88;2.22;;;;;;;1.02;83.77;101647.75;5097877;28;20348;-77
2023/12/16 01:46:12;;;;;;;1.00;1.00;;;;;;;0.94;83.73;101643.81;5115909;28;20036;-76
2023/12/16 01:48:43;;;;;;;1.45;1.35;;;;;;;0.92;83.77;101652.91;5097693;28;20378;-77
2023/12/16 01:51:12;;;;;;;2.95;2.42;;;;;;;0.89;84.07;101652.69;5116667;28;20351;-77
2023/12/16 01:53:43;;;;;;;1.95;1.85;;;;;;;0.89;84.56;101647.66;5114931;28;20047;-77
2023/12/16 01:56:13;;;;;;;2.95;2.65;;;;;;;0.89;84.52;101647.66;5081536;28;20134;-77
2023/12/16 01:58:43;;;;;;;3.40;2.65;;;;;;;0.92;84.71;101627.78;5115592;28;20043;-77
2023/12/16 02:01:12;;;;;;;1.70;1.60;;;;;;;0.91;84.14;101620.13;5114903;28;20046;-77
2023/12/16 02:03:46;;;;;;;1.63;1.48;;;;;;;0.92;84.72;101627.78;5098177;28;20448;-78
2023/12/16 02:06:15;;;;;;;8.68;2.53;;;;;;;0.91;84.64;101631.03;5114955;28;20062;-77
2023/12/16 02:08:44;;;;;;;3.00;2.80;;;;;;;0.97;85.19;101623.06;5097429;28;20144;-77
2023/12/16 02:11:13;;;;;;;7.05;2.55;;;;;;;1.02;84.83;101620.09;5115967;28;20043;-77
2023/12/16 02:13:42;;;;;;;1.85;1.30;;;;;;;1.06;85.34;101627.06;5115410;28;20130;-77
2023/12/16 02:16:11;;;;;;;3.42;2.83;;;;;;;1.07;85.22;101633.84;5115713;28;20051;-77
2023/12/16 02:18:40;;;;;;;2.72;2.53;;;;;;;1.10;85.33;101649.16;5115225;28;20445;-73
2023/12/16 02:21:10;;;;;;;5.78;3.70;;;;;;;1.09;84.77;101649.91;5114799;28;20047;-74
2023/12/16 02:23:41;;;;;;;4.43;2.28;;;;;;;1.11;84.94;101655.91;5114172;28;20039;-73
2023/12/16 02:26:10;;;;;;;1.35;1.25;;;;;;;1.12;85.05;101646.75;5115253;28;20036;-73
2023/12/16 02:28:40;;;;;;;6.30;4.53;;;;;;;1.18;85.46;101648.03;5115040;28;20067;-74
2023/12/16 02:31:09;;;;;;;4.68;3.20;;;;;;;1.19;85.35;101649.78;5115271;28;20134;-73
2023/12/16 02:33:39;;;;;;;2.60;2.40;;;;;;;1.18;85.46;101653.06;5115310;28;20081;-74
2023/12/16 02:36:08;;;;;;;1.58;1.48;;;;;;;1.22;85.05;101649.97;5115586;28;20047;-73
2023/12/16 02:38:37;;;;;;;1.65;1.55;;;;;;;1.24;85.70;101658.50;5115175;28;20039;-74
2023/12/16 02:41:07;;;;;;;1.47;1.37;;;;;;;1.27;85.06;101652.81;5115160;28;20036;-73
2023/12/16 02:43:36;;;;;;;0.88;0.88;;;;;;;1.22;84.91;101655.00;5113589;28;20774;-73
2023/12/16 02:46:05;;;;;;;1.67;1.57;;;;;;;1.21;85.21;101658.28;5114864;28;20483;-73
2023/12/16 02:48:34;;;;;;;1.05;1.02;;;;;;;1.27;85.75;101663.72;5115028;28;20423;-74
2023/12/16 02:51:03;;;;;;;4.57;4.00;;;;;;;1.34;85.01;101665.03;5113504;28;20493;-77
2023/12/16 02:53:32;;;;;;;1.63;1.55;;;;;;;1.25;85.42;101640.13;5113833;28;20428;-77
2023/12/16 02:56:02;;;;;;;6.13;2.67;;;;;;;1.37;85.42;101662.69;5113706;28;20053;-77
2023/12/16 02:58:32;;;;;;;5.33;3.33;;;;;;;1.34;85.29;101660.00;5113583;28;20047;-77
2023/12/16 03:01:01;;;;;;;3.70;2.45;;;;;;;1.31;85.33;101664.81;5114821;28;20280;-77
2023/12/16 03:03:30;;;;;;;1.92;1.80;;;;;;;1.28;85.50;101674.66;5113087;28;20507;-77
2023/12/16 03:06:06;;;;;;;3.15;2.65;;;;;;;1.30;85.42;101679.03;5114421;28;20063;-77
2023/12/16 03:08:35;;;;;;;5.88;1.92;;;;;;;1.35;86.17;101677.72;5096649;28;20146;-77
2023/12/16 03:11:05;;;;;;;5.22;3.13;;;;;;;1.29;85.84;101677.31;5114315;28;20046;-73
2023/12/16 03:13:35;;;;;;;2.97;2.70;;;;;;;1.35;86.31;101687.78;5114621;28;20128;-73
2023/12/16 03:16:05;;;;;;;3.25;2.22;;;;;;;1.30;86.04;101674.00;5114613;28;20048;-73
2023/12/16 03:18:34;;;;;;;;;;;;;;;1.44;86.02;101689.16;5113795;28;20055;-73
2023/12/16 03:21:06;;;;;;;0.82;0.82;;;;;;;1.45;85.80;101689.25;5114725;28;19926;-73
2023/12/16 03:23:35;;;;;;;1.40;1.30;;;;;;;1.49;85.47;101685.31;5113634;28;20043;-74
2023/12/16 03:26:04;;;;;;;1.85;1.75;;;;;;;1.53;86.38;101689.78;5113913;28;20046;-74
2023/12/16 03:28:33;;;;;;;4.00;1.75;;;;;;;1.50;86.23;101682.03;5113378;28;20046;-73
2023/12/16 03:31:04;;;;;;;2.42;2.22;;;;;;;1.50;86.07;101675.34;5114063;28;20145;-77
2023/12/16 03:33:33;;;;;;;2.10;1.42;;;;;;;1.60;85.94;101696.97;5114346;28;20093;-77
2023/12/16 03:36:03;;;;;;;2.80;2.08;;;;;;;1.60;85.61;101702.00;5113724;28;20445;-78
2023/12/16 03:38:32;;;;;;;1.23;1.10;;;;;;;1.53;85.46;101692.31;5112983;28;20046;-77
2023/12/16 03:41:00;;;;;;;3.17;1.57;;;;;;;1.40;85.85;101679.66;5113948;28;20044;-76
2023/12/16 03:43:29;;;;;;;3.47;2.38;;;;;;;1.54;85.49;101715.03;5113938;28;20071;-74
2023/12/16 03:45:58;;;;;;;3.43;3.03;;;;;;;1.51;85.41;101716.50;5113798;28;20039;-73
2023/12/16 03:48:29;;;;;;;3.30;2.63;;;;;;;1.49;86.26;101721.41;5115029;28;20498;-73
2023/12/16 03:50:57;;;;;;;0.88;0.88;;;;;;;1.49;86.05;101715.50;5113894;28;20055;-73
2023/12/16 03:53:26;;;;;;;3.08;2.88;;;;;;;1.56;85.82;101720.19;5113192;28;20032;-77
2023/12/16 03:55:55;;;;;;;2.40;2.13;;;;;;;1.61;85.96;101722.22;5114159;28;20044;-77
2023/12/16 03:58:24;;;;;;;1.00;0.98;;;;;;;1.62;85.31;101718.06;5112931;28;20040;-77
2023/12/16 04:00:53;;;;;;;1.03;1.03;;;;;;;1.65;85.35;101713.25;5112941;28;20563;-78
2023/12/16 04:03:22;;;;;;;1.67;1.58;;;;;;;1.66;86.12;101709.94;5113980;28;20276;-77
2023/12/16 04:05:52;;;;;;;8.13;3.80;;;;;;;1.58;85.78;101696.88;5114176;28;20126;-77
2023/12/16 04:08:21;;;;;;;0.90;0.90;;;;;;;1.61;85.66;101701.25;5113151;28;20118;-77
2023/12/16 04:10:50;;;;;;;28.87;4.37;;;;;;;1.60;85.50;101689.44;5113784;28;20114;-77
2023/12/16 04:13:19;;;;;;;1.92;1.80;;;;;;;1.66;86.01;101699.88;5113953;28;20043;-73
2023/12/16 04:15:52;;;;;;;8.30;4.60;;;;;;;1.64;84.91;101706.47;5114825;28;20077;-73
2023/12/16 04:18:21;;;;;;;2.83;2.63;;;;;;;1.62;85.07;101703.84;5113937;28;20055;-73
2023/12/16 04:20:50;;;;;;;2.40;2.20;;;;;;;1.55;85.24;101705.84;5113968;28;20043;-73
2023/12/16 04:23:21;;;;;;;;;;;;;;;1.50;84.86;101709.69;5114258;28;20052;-78
2023/12/16 04:25:50;;;;;;;1.70;1.60;;;;;;;1.47;84.80;101717.03;5114225;28;19931;-77
2023/12/16 04:28:18;;;;;;;2.22;2.10;;;;;;;1.47;84.86;101712.00;5113882;28;20059;-77
2023/12/16 04:30:48;;;;;;;2.17;1.98;;;;;;;1.47;85.67;101717.03;5113290;28;20574;-78
2023/12/16 04:33:17;;;;;;;4.20;1.98;;;;;;;1.49;85.86;101721.41;5112512;28;20093;-73
2023/12/16 04:35:46;;;;;;;1.85;1.75;;;;;;;1.43;85.16;101712.56;5113734;28;20043;-73
2023/12/16 04:38:14;;;;;;;3.22;1.33;;;;;;;1.46;85.72;101717.81;5113755;28;20039;-73
2023/12/16 04:40:45;;;;;;;1.92;1.83;;;;;;;1.50;85.13;101722.28;5113698;28;20046;-73
2023/12/16 04:43:14;;;;;;;2.85;1.77;;;;;;;1.57;85.81;101730.34;5113493;28;20043;-73
2023/12/16 04:45:45;;;;;;;1.55;1.45;;;;;;;1.58;85.09;101742.19;5115925;28;20039;-73
2023/12/16 04:48:14;;;;;;;11.98;4.57;;;;;;;1.58;85.31;101741.28;5117426;28;20134;-73
2023/12/16 04:50:43;;;;;;;2.88;2.67;;;;;;;1.58;84.82;101736.25;5117588;28;20044;-73
2023/12/16 04:53:12;;;;;;;1.77;1.65;;;;;;;1.58;85.00;101741.28;5116012;28;20036;-77
2023/12/16 04:55:41;;;;;;;3.75;2.47;;;;;;;1.49;85.42;101735.66;5117213;28;20071;-77
2023/12/16 04:58:11;;;;;;;2.60;2.30;;;;;;;1.54;85.86;101749.38;5098417;28;20409;-78
2023/12/16 05:00:41;;;;;;;3.30;2.20;;;;;;;1.56;85.44;101753.75;5117104;28;20032;-77
2023/12/16 05:03:09;;;;;;;0.70;0.70;;;;;;;1.55;85.47;101751.13;5117042;28;20044;-77
2023/12/16 05:05:38;;;;;;;1.33;1.23;;;;;;;1.59;84.94;101748.06;5115744;28;20326;-73
2023/12/16 05:08:07;;;;;;;1.95;1.85;;;;;;;1.65;86.07;101745.97;5115483;28;20627;-73
2023/12/16 05:10:36;;;;;;;4.50;2.75;;;;;;;1.68;85.10;101753.75;5117184;28;20032;-73
2023/12/16 05:13:05;;;;;;;1.57;1.47;;;;;;;1.73;85.60;101757.41;5116969;28;20039;-73
2023/12/16 05:15:35;;;;;;;0.63;0.63;;;;;;;1.75;85.78;101760.94;5116813;28;20046;-77
2023/12/16 05:18:04;;;;;;;1.05;1.05;;;;;;;1.77;85.18;101749.31;5115460;28;20447;-77
2023/12/16 05:20:34;;;;;;;1.92;1.73;;;;;;;1.79;86.12;101757.84;5115058;28;20089;-77
2023/12/16 05:23:04;;;;;;;3.15;2.10;;;;;;;1.72;85.56;101736.44;5116710;28;20043;-77
2023/12/16 05:25:32;;;;;;;1.25;1.15;;;;;;;1.81;85.42;101741.19;5116373;28;20505;-73
2023/12/16 05:28:03;;;;;;;1.70;1.53;;;;;;;1.83;86.08;101745.56;5115056;28;20040;-73
2023/12/16 05:30:32;;;;;;;7.28;2.22;;;;;;;1.85;85.33;101743.13;5116552;28;20508;-74
2023/12/16 05:33:02;;;;;;;1.80;1.70;;;;;;;1.87;86.17;101751.69;5116587;28;20147;-73
2023/12/16 05:35:31;;;;;;;3.50;1.92;;;;;;;1.90;85.50;101751.88;5116489;28;20509;-73
2023/12/16 05:38:00;;;;;;;0.70;0.70;;;;;;;1.91;85.55;101756.16;5114982;28;20374;-73
2023/12/16 05:40:29;;;;;;;1.93;1.83;;;;;;;1.91;85.83;101754.50;5116095;27;20392;-73
2023/12/16 05:42:58;;;;;;;1.83;1.70;;;;;;;1.88;85.99;101748.38;5116314;28;20043;-73
2023/12/16 05:45:26;;;;;;;4.63;2.28;;;;;;;1.84;85.43;101751.47;5116001;28;20444;-75
2023/12/16 05:47:55;;;;;;;2.60;2.20;;;;;;;1.85;85.77;101758.22;5116012;28;20058;-73
2023/12/16 05:50:26;;;;;;;1.25;1.15;;;;;;;1.80;86.02;101759.59;5115829;28;20272;-74
2023/12/16 05:52:55;;;;;;;0.98;0.98;;;;;;;1.80;85.27;101760.44;5115827;28;20047;-74
2023/12/16 05:55:23;;;;;;;1.27;1.17;;;;;;;1.84;85.78;101766.56;5115869;28;20142;-74
2023/12/16 05:57:52;;;;;;;0.95;0.95;;;;;;;1.72;86.10;101748.13;5116165;28;20050;-76
2023/12/16 06:00:21;;;;;;;1.83;1.73;;;;;;;1.86;85.40;101760.88;5114709;28;20078;-75
2023/12/16 06:02:50;;;;;;;2.08;1.95;;;;;;;1.83;85.54;101764.81;5115922;28;20032;-73
2023/12/16 06:05:19;;;;;;;1.25;1.20;;;;;;;1.80;86.22;101757.09;5114680;28;20432;-74
2023/12/16 06:07:50;;;;;;;4.68;1.95;;;;;;;1.84;85.40;101769.97;5115630;28;20031;-75
2023/12/16 06:10:19;;;;;;;11.02;1.98;;;;;;;1.85;85.54;101769.19;5115955;28;20502;-74
2023/12/16 06:12:48;;;;;;;2.17;2.03;;;;;;;1.85;85.60;101769.19;5115473;28;20048;-74
2023/12/16 06:15:17;;;;;;;1.95;1.80;;;;;;;1.88;85.62;101769.41;5115738;28;20130;-74
2023/12/16 06:17:47;;;;;;;1.38;1.27;;;;;;;1.85;85.13;101775.84;5115373;28;20134;-74
2023/12/16 06:20:16;;;;;;;3.60;2.97;;;;;;;1.83;85.95;101780.81;5115537;27;20063;-74
2023/12/16 06:22:45;;;;;;;0.98;0.98;;;;;;;1.81;85.35;101783.97;5115304;28;20044;-74
2023/12/16 06:25:15;;;;;;;2.60;2.40;;;;;;;1.83;85.74;101790.00;5115493;28;20422;-75
2023/12/16 06:27:44;;;;;;;1.38;1.27;;;;;;;1.89;85.89;101795.44;5115168;28;20028;-74
2023/12/16 06:30:14;;;;;;;1.10;1.10;;;;;;;1.93;86.06;101803.31;5115429;28;20031;-74
2023/12/16 06:32:43;;;;;;;1.10;1.05;;;;;;;1.93;85.12;101803.31;5113906;28;20296;-73
2023/12/16 06:35:12;;;;;;;2.23;1.80;;;;;;;1.87;85.86;101797.00;5114934;28;20047;-74
2023/12/16 06:37:41;;;;;;;1.77;1.67;;;;;;;2.02;85.42;101813.13;5114600;28;20369;-73
2023/12/16 06:40:10;;;;;;;0.83;0.83;;;;;;;2.01;85.95;101812.28;5115076;28;20047;-73
2023/12/16 06:42:41;;;;;;;1.90;1.77;;;;;;;2.06;85.36;101825.16;5114909;28;20043;-74
2023/12/16 06:45:10;;;;;;;1.55;1.45;;;;;;;2.09;85.71;101835.41;5115077;28;20139;-73
2023/12/16 06:47:40;;;;;;;0.82;0.82;;;;;;;2.12;85.66;101824.69;5114962;28;20054;-74
2023/12/16 06:50:10;;;;;;;2.60;2.40;;;;;;;2.10;85.79;101832.16;5115007;28;20069;-74
2023/12/16 06:52:39;;;;;;;3.72;3.25;;;;;;;2.13;85.38;101827.31;5115145;28;20040;-74
2023/12/16 06:55:09;;;;;;;4.65;1.20;;;;;;;2.21;85.41;101840.44;5114931;28;20085;-74
2023/12/16 06:57:40;;;;;;;1.42;1.33;;;;;;;2.20;85.73;101839.56;5113529;28;20478;-74
2023/12/16 07:00:10;;;;;;;9.20;1.65;;;;;;;2.21;85.29;101837.91;5114561;28;20047;-73
2023/12/16 07:02:41;;;;;;;2.10;1.90;;;;;;;2.18;85.55;101841.09;5114781;27;20065;-73
2023/12/16 07:05:11;;;;;;;3.83;3.45;;;;;;;2.10;85.02;101838.81;5113505;28;20058;-74
2023/12/16 07:07:40;;;;;;;3.70;3.38;;;;;;;2.14;84.54;101839.13;5113874;28;20042;-73
2023/12/16 07:10:10;;;;;;;9.25;6.95;;;;;;;2.13;84.65;101836.53;5114633;28;20035;-73
2023/12/16 07:12:40;;;;;;;3.25;2.08;;;;;;;2.03;84.77;101819.91;5114634;28;20036;-73
2023/12/16 07:15:10;;;;;;;1.25;1.20;;;;;;;2.21;84.83;101851.38;5114283;28;20538;-74
2023/12/16 07:17:40;;;;;;;2.92;2.72;;;;;;;2.08;84.78;101827.78;5114354;28;20044;-73
2023/12/16 07:20:10;;;;;;;2.65;2.45;;;;;;;2.26;85.34;101850.03;5113527;28;20055;-74
2023/12/16 07:22:39;;;;;;;6.20;2.45;;;;;;;2.26;85.17;101850.03;5112343;28;20507;-73
2023/12/16 07:25:09;;;;;;;0.87;0.87;;;;;;;2.25;85.45;101843.25;5114430;28;20114;-73
2023/12/16 07:27:37;;;;;;;;;;;;;;;2.35;84.73;101859.88;5114699;28;20332;-73
2023/12/16 07:30:09;;;;;;;1.70;1.60;;;;;;;2.24;84.68;101845.66;5114678;28;20345;-74
2023/12/16 07:32:41;;;;;;;2.45;2.25;;;;;;;2.23;84.45;101838.91;5112703;28;20052;-73
2023/12/16 07:35:13;;;;;;;2.40;1.88;;;;;;;2.33;84.47;101863.91;5114492;28;20036;-73
2023/12/16 07:37:43;;;;;;;0.80;0.80;;;;;;;2.16;84.61;101837.59;5114273;28;20035;-73
2023/12/16 07:40:12;;;;;;;1.85;1.23;;;;;;;2.31;84.99;101863.81;5114300;28;20044;-73
2023/12/16 07:42:41;;;;;;;0.70;0.70;;;;;;;2.13;84.83;101831.47;5114246;28;20027;-73
2023/12/16 07:45:12;;;;;;;0.93;0.93;;;;;;;2.25;84.00;101857.50;5114168;28;20039;-73
2023/12/16 07:47:40;;;;;;;1.80;1.33;;;;;;;2.24;84.44;101846.53;5112943;28;20047;-74
2023/12/16 07:50:11;;;;;;;1.50;1.42;;;;;;;2.25;84.44;101848.31;5114068;28;20046;-74
2023/12/16 07:52:40;;;;;;;3.15;2.88;;;;;;;2.32;83.61;101858.00;5114560;28;20046;-74
2023/12/16 07:55:09;;;;;;;2.57;2.37;;;;;;;2.42;83.55;101862.03;5112911;28;20035;-73
2023/12/16 07:57:38;;;;;;;;;;;;;;;2.45;84.15;101858.03;5114199;28;20280;-74
2023/12/16 08:00:09;;;;;;;1.70;1.60;;;;;;;2.45;84.13;101864.72;5114063;28;20373;-74
2023/12/16 08:02:40;;;;;;;1.45;1.35;;;;;;;2.44;83.30;101870.56;5114366;28;20048;-74
2023/12/16 08:05:09;;;;;;;2.90;2.70;;;;;;;2.56;84.05;101862.16;5114186;28;20047;-74
2023/12/16 08:07:38;;;;;;;0.68;0.68;;;;;;;2.54;83.50;101860.31;5112375;28;20036;-73
2023/12/16 08:10:08;;;;;;;;;;;;;;;2.64;83.01;101862.63;5114393;28;20036;-73
2023/12/16 08:12:36;;;;;;;0.65;0.65;;;;;;;2.67;83.15;101860.34;5113934;28;19927;-73
2023/12/16 08:15:06;;;;;;;3.10;2.80;;;;;;;2.62;83.25;101862.56;5114522;28;20046;-73
2023/12/16 08:17:36;;;;;;;1.30;1.23;;;;;;;2.47;83.18;101846.41;5112615;28;20047;-73
2023/12/16 08:20:09;;;;;;;1.75;1.45;;;;;;;2.65;82.92;101867.81;5114901;28;20047;-73
2023/12/16 08:22:38;;;;;;;0.98;0.98;;;;;;;2.58;82.96;101853.06;5117596;28;20043;-73
2023/12/16 08:25:07;;;;;;;1.17;1.10;;;;;;;2.68;82.24;101873.06;5117876;28;20047;-73
2023/12/16 08:27:36;;;;;;;2.88;2.22;;;;;;;2.76;81.92;101877.72;5117740;28;20279;-73
2023/12/16 08:30:06;;;;;;;1.30;1.20;;;;;;;2.79;82.49;101881.31;5117488;28;20074;-73
2023/12/16 08:32:36;;;;;;;0.73;0.73;;;;;;;2.76;82.17;101877.72;5115752;28;20044;-73
2023/12/16 08:35:07;;;;;;;1.67;1.58;;;;;;;2.78;81.96;101888.78;5117609;28;20107;-74
2023/12/16 08:37:36;;;;;;;2.15;1.83;;;;;;;2.80;82.29;101897.31;5117178;28;20047;-74
2023/12/16 08:40:09;;;;;;;1.30;1.20;;;;;;;2.82;81.84;101906.72;5117543;28;20125;-73
2023/12/16 08:42:42;;;;;;;1.48;1.38;;;;;;;2.86;81.10;101905.25;5117755;28;20067;-73
2023/12/16 08:45:12;;;;;;;1.88;1.67;;;;;;;2.93;81.64;101897.34;5117449;28;20039;-73
2023/12/16 08:47:41;;;;;;;2.58;2.20;;;;;;;3.02;81.24;101895.44;5117355;28;20051;-73
2023/12/16 08:50:12;;;;;;;0.55;0.55;;;;;;;2.83;81.93;101862.22;5114696;28;20134;-73
2023/12/16 08:52:42;;;;;;;2.40;2.10;;;;;;;2.95;81.63;101905.88;5097320;28;20394;-73
2023/12/16 08:55:10;;;;;;;;;;;;;;;2.98;81.51;101908.59;5097309;28;20130;-73
2023/12/16 08:57:39;;;;;;;1.42;1.20;;;;;;;3.01;81.89;101908.78;5096697;28;19920;-71
2023/12/16 09:00:10;;;;;;;1.73;1.40;;;;;;;2.89;81.86;101882.78;5095404;28;20086;-73
2023/12/16 09:02:39;;;;;;;;;;;;;;;3.06;81.43;101907.44;5097087;28;20048;-73
2023/12/16 09:05:08;;;;;;;;;;;;;;;3.09;81.95;101912.69;5095330;28;20324;-73
2023/12/16 09:07:38;;;;;;;0.65;0.65;;;;;;;3.11;81.85;101906.09;5096776;28;19969;-72
2023/12/16 09:10:08;;;;;;;1.85;1.70;;;;;;;3.19;81.98;101899.91;5096478;28;20113;-72
2023/12/16 09:12:37;;;;;;;3.40;3.10;;;;;;;3.29;82.20;101902.22;5096475;28;20048;-72
2023/12/16 09:15:07;;;;;;;3.93;3.40;;;;;;;3.35;81.88;101905.16;5096376;28;20043;-72
2023/12/16 09:17:36;;;;;;;3.33;3.08;;;;;;;3.37;82.40;101901.06;5096142;28;20093;-71
2023/12/16 09:20:07;;;;;;;3.65;3.08;;;;;;;3.43;81.93;101900.59;5096317;28;20131;-72
2023/12/16 09:22:38;;;;;;;3.83;3.10;;;;;;;3.47;81.83;101890.78;5096340;28;20410;-71
2023/12/16 09:25:09;;;;;;;1.73;1.63;;;;;;;3.42;82.01;101893.78;5095993;28;20052;-72
2023/12/16 09:27:38;;;;;;;1.17;1.08;;;;;;;3.54;82.48;101895.44;5095994;28;20498;-72
2023/12/16 09:30:08;;;;;;;1.50;1.40;;;;;;;3.60;82.14;101910.94;5096045;28;20040;-73
2023/12/16 09:32:37;;;;;;;2.13;2.03;;;;;;;3.58;81.70;101910.00;5094251;28;20048;-72
2023/12/16 09:35:06;;;;;;;4.35;1.73;;;;;;;3.68;81.76;101908.91;5094936;28;20089;-72
2023/12/16 09:37:36;;;;;;;2.80;2.22;;;;;;;3.66;82.14;101903.78;5096015;28;20051;-73
2023/12/16 09:40:08;;;;;;;11.07;4.43;;;;;;;3.61;81.28;101910.19;5094755;28;20149;-72
2023/12/16 09:42:37;;;;;;;3.05;1.52;;;;;;;3.65;81.67;101903.66;5096001;28;20044;-72
2023/12/16 09:45:07;;;;;;;2.15;1.95;;;;;;;3.68;81.01;101899.69;5095857;28;20048;-72
2023/12/16 09:47:37;;;;;;;2.30;2.10;;;;;;;3.71;81.38;101904.94;5094765;28;20050;-72
2023/12/16 09:50:10;;;;;;;1.88;1.45;;;;;;;3.72;81.33;101896.56;5095657;28;20040;-73
2023/12/16 09:52:40;;;;;;;2.33;2.13;;;;;;;3.72;80.89;101895.72;5095844;28;20054;-72
2023/12/16 09:55:10;;;;;;;;;;;;;;;3.83;80.77;101900.66;5096141;28;20486;-72
2023/12/16 09:57:41;;;;;;;1.38;1.30;;;;;;;3.86;80.93;101890.72;5095388;28;20014;-74
2023/12/16 10:00:12;;;;;;;10.90;4.97;;;;;;;3.85;80.56;101889.00;5095879;28;20044;-73
2023/12/16 10:02:46;;;;;;;2.30;1.55;;;;;;;3.87;80.57;101887.41;5093721;28;20114;-72
2023/12/16 10:05:17;;;;;;;0.75;0.75;;;;;;;3.91;80.95;101883.44;5095807;28;20040;-73
2023/12/16 10:07:47;;;;;;;1.83;1.55;;;;;;;3.92;80.66;101881.00;5094198;28;20075;-72
2023/12/16 10:10:17;;;;;;;;;;;;;;;3.94;80.57;101887.00;5095579;28;20043;-72
2023/12/16 10:12:47;;;;;;;2.55;1.38;;;;;;;3.88;80.89;101879.09;5095271;28;19924;-72
2023/12/16 10:15:30;;;;;;;2.70;2.28;;;;;;;3.53;80.47;101838.16;5095247;28;20044;-72
2023/12/16 10:18:01;;;;;;;9.27;2.47;;;;;;;3.74;81.17;101884.91;5095273;28;20044;-73
2023/12/16 10:20:31;;;;;;;4.57;2.97;;;;;;;3.81;81.18;101892.13;5095342;28;20044;-73
2023/12/16 10:23:01;;;;;;;2.88;1.70;;;;;;;3.80;81.79;101880.25;5094887;28;20123;-73
2023/12/16 10:25:32;;;;;;;1.63;1.52;;;;;;;3.75;81.74;101881.63;5095133;28;20130;-72
2023/12/16 10:28:02;;;;;;;1.05;1.02;;;;;;;3.68;81.38;101871.91;5094874;28;20090;-72
2023/12/16 10:30:32;;;;;;;0.85;0.85;;;;;;;3.77;81.50;101885.09;5094434;28;20047;-72
2023/12/16 10:33:03;;;;;;;1.25;0.98;;;;;;;3.81;82.15;101874.44;5095056;28;20032;-72
2023/12/16 10:35:33;;;;;;;1.33;1.20;;;;;;;3.85;82.15;101875.47;5095146;28;20063;-72
2023/12/16 10:38:04;;;;;;;2.92;1.58;;;;;;;3.82;81.93;101868.59;5094556;28;20559;-73
2023/12/16 10:40:38;;;;;;;;;;;;;;;3.89;81.83;101860.59;5095024;28;20498;-72
2023/12/16 10:43:08;;;;;;;1.45;1.25;;;;;;;3.95;81.94;101860.09;5092654;28;19923;-73
2023/12/16 10:45:37;;;;;;;1.63;1.48;;;;;;;4.00;81.61;101864.66;5094750;28;20047;-73
2023/12/16 10:48:11;;;;;;;5.00;3.10;;;;;;;4.04;81.55;101866.59;5094386;28;20508;-72
2023/12/16 10:50:44;;;;;;;2.10;1.17;;;;;;;4.05;81.50;101858.22;5094369;28;20043;-72
2023/12/16 10:53:23;;;;;;;3.95;3.05;;;;;;;4.02;81.45;101858.06;5094838;28;20139;-72
2023/12/16 10:55:59;;;;;;;3.13;2.50;;;;;;;3.75;81.23;101821.00;5094529;28;20079;-73
2023/12/16 10:58:31;;;;;;;2.03;1.83;;;;;;;4.04;81.37;101865.72;5094522;28;20069;-72
2023/12/16 11:01:06;;;;;;;5.55;1.92;;;;;;;3.79;80.95;101817.88;5094250;28;20044;-72
2023/12/16 11:03:43;;;;;;;1.83;1.67;;;;;;;4.11;81.31;101849.25;5093412;28;20494;-73
2023/12/16 11:06:21;;;;;;;5.57;3.70;;;;;;;3.95;80.97;101818.03;5093181;28;20398;-73
2023/12/16 11:08:52;;;;;;;2.20;2.00;;;;;;;4.22;80.98;101860.91;5094478;28;20040;-73
2023/12/16 11:11:22;;;;;;;1.60;1.50;;;;;;;4.27;80.57;101857.00;5093943;28;20047;-73
2023/12/16 11:13:54;;;;;;;2.65;2.40;;;;;;;4.31;81.01;101858.91;5094196;28;20040;-73
2023/12/16 11:16:34;;;;;;;4.03;2.92;;;;;;;4.31;80.92;101846.28;5094227;28;20040;-72
2023/12/16 11:19:06;;;;;;;1.33;1.23;;;;;;;4.34;80.86;101847.34;5076151;28;20066;-73
2023/12/16 11:21:40;;;;;;;1.38;1.27;;;;;;;4.36;80.94;101849.94;5094170;28;20051;-72
2023/12/16 11:24:11;;;;;;;2.05;1.95;;;;;;;4.34;80.56;101846.47;5093930;28;20032;-72
2023/12/16 11:26:41;;;;;;;3.75;3.00;;;;;;;4.34;80.39;101847.34;5094472;28;20090;-72
2023/12/16 11:29:13;;;;;;;2.65;2.45;;;;;;;4.29;80.15;101848.72;5093977;28;20449;-72
2023/12/16 11:31:42;;;;;;;9.63;4.00;;;;;;;4.25;80.69;101845.91;5093541;28;20146;-73
2023/12/16 11:34:11;;;;;;;3.17;2.73;;;;;;;4.26;80.29;101847.66;5093687;28;20040;-73
2023/12/16 11:36:52;;;;;;;7.00;3.00;;;;;;;4.29;80.55;101837.72;5093798;28;20043;-72
2023/12/16 11:39:38;;;;;;;2.42;2.22;;;;;;;4.32;80.49;101837.91;5094229;28;20277;-73
2023/12/16 11:42:10;;;;;;;2.75;2.53;;;;;;;4.34;80.60;101832.16;5093519;28;20051;-73
2023/12/16 11:44:51;;;;;;;1.70;1.60;;;;;;;4.43;80.60;101832.69;5093564;28;20512;-73
2023/12/16 11:47:24;;;;;;;3.60;3.30;;;;;;;4.47;80.45;101818.56;5093928;28;20044;-73
2023/12/16 11:49:54;;;;;;;9.77;3.83;;;;;;;4.55;80.48;101832.53;5093925;28;20048;-73